sensor_id;sensor_type;location;lat;lon;timestamp;P1;durP1;ratioP1;P2;durP2;ratioP2
62990;SDS011;49084;48.204;16.202;2023-05-20T11:48:00;11.25;;;7.55;;
62990;SDS011;49084;48.204;16.202;2023-05-20T11:50:32;12.85;;;8.38;;
62990;SDS011;49084;48.204;16.202;2023-05-20T11:53:01;8.52;;;7.53;;
62990;SDS011;49084;48.204;16.202;2023-05-20T11:55:27;8.23;;;7.07;;
62990;SDS011;49084;48.204;16.202;2023-05-20T11:57:53;9.20;;;6.72;;
62990;SDS011;49084;48.204;16.202;2023-05-20T12:00:21;7.65;;;6.78;;
62990;SDS011;49084;48.204;16.202;2023-05-20T12:02:47;7.80;;;6.68;;
62990;SDS011;49084;48.204;16.202;2023-05-20T12:05:13;9.43;;;7.00;;
62990;SDS011;49084;48.204;16.202;2023-05-20T12:07:39;7.82;;;6.32;;
62990;SDS011;49084;48.204;16.202;2023-05-20T12:10:04;8.18;;;7.28;;
62990;SDS011;49084;48.204;16.202;2023-05-20T12:12:31;7.32;;;6.63;;
62990;SDS011;49084;48.204;16.202;2023-05-20T12:14:56;7.40;;;6.63;;
62990;SDS011;49084;48.204;16.202;2023-05-20T12:17:22;9.13;;;6.85;;
62990;SDS011;49084;48.204;16.202;2023-05-20T12:19:48;8.02;;;6.97;;
62990;SDS011;49084;48.204;16.202;2023-05-20T12:22:13;8.38;;;7.55;;
62990;SDS011;49084;48.204;16.202;2023-05-20T12:24:39;9.73;;;7.95;;
62990;SDS011;49084;48.204;16.202;2023-05-20T12:27:05;7.63;;;6.93;;
62990;SDS011;49084;48.204;16.202;2023-05-20T12:29:31;7.55;;;6.70;;
62990;SDS011;49084;48.204;16.202;2023-05-20T12:31:57;8.73;;;6.78;;
62990;SDS011;49084;48.204;16.202;2023-05-20T12:34:23;10.88;;;6.50;;
62990;SDS011;49084;48.204;16.202;2023-05-20T12:36:49;12.20;;;6.78;;
62990;SDS011;49084;48.204;16.202;2023-05-20T12:39:15;9.50;;;6.88;;
62990;SDS011;49084;48.204;16.202;2023-05-20T12:41:42;7.13;;;6.13;;
62990;SDS011;49084;48.204;16.202;2023-05-20T12:44:08;12.10;;;7.25;;
62990;SDS011;49084;48.204;16.202;2023-05-20T12:46:34;7.05;;;6.45;;
62990;SDS011;49084;48.204;16.202;2023-05-20T12:49:00;7.15;;;6.50;;
62990;SDS011;49084;48.204;16.202;2023-05-20T12:51:26;7.15;;;6.13;;
62990;SDS011;49084;48.204;16.202;2023-05-20T12:53:52;7.60;;;6.00;;
62990;SDS011;49084;48.204;16.202;2023-05-20T12:56:17;6.50;;;5.82;;
62990;SDS011;49084;48.204;16.202;2023-05-20T12:58:43;6.55;;;5.95;;
62990;SDS011;49084;48.204;16.202;2023-05-20T13:01:09;7.00;;;6.25;;
62990;SDS011;49084;48.204;16.202;2023-05-20T13:03:35;8.80;;;5.97;;
62990;SDS011;49084;48.204;16.202;2023-05-20T13:06:01;11.35;;;5.82;;
62990;SDS011;49084;48.204;16.202;2023-05-20T13:08:27;9.25;;;6.07;;
62990;SDS011;49084;48.204;16.202;2023-05-20T13:10:53;7.93;;;5.38;;
62990;SDS011;49084;48.204;16.202;2023-05-20T13:13:19;7.32;;;5.45;;
62990;SDS011;49084;48.204;16.202;2023-05-20T13:15:46;7.60;;;5.53;;
62990;SDS011;49084;48.204;16.202;2023-05-20T13:18:13;7.63;;;5.05;;
62990;SDS011;49084;48.204;16.202;2023-05-20T13:20:40;5.97;;;5.40;;
62990;SDS011;49084;48.204;16.202;2023-05-20T13:23:06;6.78;;;5.45;;
62990;SDS011;49084;48.204;16.202;2023-05-20T13:25:33;9.00;;;5.28;;
62990;SDS011;49084;48.204;16.202;2023-05-20T13:27:59;7.40;;;6.20;;
62990;SDS011;49084;48.204;16.202;2023-05-20T13:30:24;5.93;;;5.40;;
62990;SDS011;49084;48.204;16.202;2023-05-20T13:32:52;7.63;;;5.40;;
62990;SDS011;49084;48.204;16.202;2023-05-20T13:35:17;8.25;;;5.53;;
62990;SDS011;49084;48.204;16.202;2023-05-20T13:37:43;7.10;;;4.90;;
62990;SDS011;49084;48.204;16.202;2023-05-20T13:40:09;5.43;;;4.85;;
62990;SDS011;49084;48.204;16.202;2023-05-20T13:42:35;7.25;;;5.70;;
62990;SDS011;49084;48.204;16.202;2023-05-20T13:45:01;8.95;;;5.72;;
62990;SDS011;49084;48.204;16.202;2023-05-20T13:47:27;9.40;;;5.88;;
62990;SDS011;49084;48.204;16.202;2023-05-20T13:49:52;8.68;;;5.35;;
62990;SDS011;49084;48.204;16.202;2023-05-20T13:52:18;11.43;;;5.07;;
62990;SDS011;49084;48.204;16.202;2023-05-20T13:54:43;6.10;;;5.50;;
62990;SDS011;49084;48.204;16.202;2023-05-20T13:57:11;9.07;;;4.95;;
62990;SDS011;49084;48.204;16.202;2023-05-20T13:59:37;11.00;;;5.60;;
62990;SDS011;49084;48.204;16.202;2023-05-20T14:02:03;8.98;;;5.78;;
62990;SDS011;49084;48.204;16.202;2023-05-20T14:04:29;10.20;;;5.93;;
62990;SDS011;49084;48.204;16.202;2023-05-20T14:06:55;6.07;;;5.22;;
62990;SDS011;49084;48.204;16.202;2023-05-20T14:09:21;6.07;;;5.47;;
62990;SDS011;49084;48.204;16.202;2023-05-20T14:11:46;6.38;;;5.10;;
62990;SDS011;49084;48.204;16.202;2023-05-20T14:14:12;7.53;;;5.75;;
62990;SDS011;49084;48.204;16.202;2023-05-20T14:16:38;7.07;;;4.78;;
62990;SDS011;49084;48.204;16.202;2023-05-20T14:19:04;5.82;;;5.15;;
62990;SDS011;49084;48.204;16.202;2023-05-20T14:21:29;7.75;;;5.40;;
62990;SDS011;49084;48.204;16.202;2023-05-20T14:23:56;6.38;;;5.72;;
62990;SDS011;49084;48.204;16.202;2023-05-20T14:26:22;5.95;;;4.75;;
62990;SDS011;49084;48.204;16.202;2023-05-20T14:28:48;6.75;;;5.10;;
62990;SDS011;49084;48.204;16.202;2023-05-20T14:31:14;9.50;;;6.22;;
62990;SDS011;49084;48.204;16.202;2023-05-20T14:33:40;6.95;;;6.05;;
62990;SDS011;49084;48.204;16.202;2023-05-20T14:36:06;7.10;;;5.40;;
62990;SDS011;49084;48.204;16.202;2023-05-20T14:38:31;7.18;;;5.70;;
62990;SDS011;49084;48.204;16.202;2023-05-20T14:40:57;5.55;;;5.00;;
62990;SDS011;49084;48.204;16.202;2023-05-20T14:43:23;7.30;;;4.93;;
62990;SDS011;49084;48.204;16.202;2023-05-20T14:45:48;6.47;;;5.22;;
62990;SDS011;49084;48.204;16.202;2023-05-20T14:48:14;7.15;;;5.07;;
62990;SDS011;49084;48.204;16.202;2023-05-20T14:50:40;9.88;;;5.88;;
62990;SDS011;49084;48.204;16.202;2023-05-20T14:53:06;8.13;;;5.15;;
62990;SDS011;49084;48.204;16.202;2023-05-20T14:55:32;5.57;;;5.10;;
62990;SDS011;49084;48.204;16.202;2023-05-20T14:57:57;5.90;;;5.10;;
62990;SDS011;49084;48.204;16.202;2023-05-20T15:00:23;6.72;;;5.63;;
62990;SDS011;49084;48.204;16.202;2023-05-20T15:02:48;6.30;;;5.22;;
62990;SDS011;49084;48.204;16.202;2023-05-20T15:05:14;7.10;;;5.40;;
62990;SDS011;49084;48.204;16.202;2023-05-20T15:07:40;6.45;;;5.07;;
62990;SDS011;49084;48.204;16.202;2023-05-20T15:10:06;6.50;;;5.78;;
62990;SDS011;49084;48.204;16.202;2023-05-20T15:12:32;7.00;;;5.72;;
62990;SDS011;49084;48.204;16.202;2023-05-20T15:14:57;8.27;;;5.70;;
62990;SDS011;49084;48.204;16.202;2023-05-20T15:17:23;8.25;;;5.68;;
62990;SDS011;49084;48.204;16.202;2023-05-20T15:19:48;6.28;;;5.32;;
62990;SDS011;49084;48.204;16.202;2023-05-20T15:22:14;6.15;;;5.55;;
62990;SDS011;49084;48.204;16.202;2023-05-20T15:24:40;7.30;;;5.63;;
62990;SDS011;49084;48.204;16.202;2023-05-20T15:27:05;6.82;;;5.38;;
62990;SDS011;49084;48.204;16.202;2023-05-20T15:29:31;5.82;;;5.30;;
62990;SDS011;49084;48.204;16.202;2023-05-20T15:31:57;8.20;;;5.50;;
62990;SDS011;49084;48.204;16.202;2023-05-20T15:34:22;6.13;;;5.28;;
62990;SDS011;49084;48.204;16.202;2023-05-20T15:36:48;6.57;;;5.93;;
62990;SDS011;49084;48.204;16.202;2023-05-20T15:39:14;8.90;;;5.85;;
62990;SDS011;49084;48.204;16.202;2023-05-20T15:41:40;6.18;;;5.57;;
62990;SDS011;49084;48.204;16.202;2023-05-20T15:44:06;16.35;;;6.90;;
62990;SDS011;49084;48.204;16.202;2023-05-20T15:46:32;6.95;;;5.57;;
62990;SDS011;49084;48.204;16.202;2023-05-20T15:48:58;7.13;;;5.40;;
62990;SDS011;49084;48.204;16.202;2023-05-20T15:51:23;8.68;;;6.05;;
62990;SDS011;49084;48.204;16.202;2023-05-20T15:53:49;7.30;;;6.10;;
62990;SDS011;49084;48.204;16.202;2023-05-20T15:56:15;12.40;;;6.40;;
62990;SDS011;49084;48.204;16.202;2023-05-20T15:58:41;8.25;;;5.72;;
62990;SDS011;49084;48.204;16.202;2023-05-20T16:01:07;11.32;;;6.57;;
62990;SDS011;49084;48.204;16.202;2023-05-20T16:03:33;8.68;;;6.05;;
62990;SDS011;49084;48.204;16.202;2023-05-20T16:05:59;10.95;;;6.03;;
62990;SDS011;49084;48.204;16.202;2023-05-20T16:08:25;9.70;;;5.93;;
62990;SDS011;49084;48.204;16.202;2023-05-20T16:10:53;7.50;;;6.20;;
62990;SDS011;49084;48.204;16.202;2023-05-20T16:13:19;9.55;;;6.10;;
62990;SDS011;49084;48.204;16.202;2023-05-20T16:15:45;6.60;;;5.90;;
62990;SDS011;49084;48.204;16.202;2023-05-20T16:18:11;8.60;;;6.07;;
62990;SDS011;49084;48.204;16.202;2023-05-20T16:20:36;9.40;;;6.38;;
62990;SDS011;49084;48.204;16.202;2023-05-20T16:23:02;8.52;;;5.78;;
62990;SDS011;49084;48.204;16.202;2023-05-20T16:25:29;9.18;;;6.45;;
62990;SDS011;49084;48.204;16.202;2023-05-20T16:27:55;7.75;;;6.10;;
62990;SDS011;49084;48.204;16.202;2023-05-20T16:30:22;7.40;;;6.40;;
62990;SDS011;49084;48.204;16.202;2023-05-20T16:32:48;7.95;;;6.40;;
62990;SDS011;49084;48.204;16.202;2023-05-20T16:35:13;10.45;;;6.70;;
62990;SDS011;49084;48.204;16.202;2023-05-20T16:37:40;7.80;;;6.15;;
62990;SDS011;49084;48.204;16.202;2023-05-20T16:40:06;9.20;;;6.63;;
62990;SDS011;49084;48.204;16.202;2023-05-20T16:42:33;13.73;;;6.10;;
62990;SDS011;49084;48.204;16.202;2023-05-20T16:44:59;9.70;;;6.57;;
62990;SDS011;49084;48.204;16.202;2023-05-20T16:47:25;7.88;;;6.57;;
62990;SDS011;49084;48.204;16.202;2023-05-20T16:49:50;9.48;;;6.53;;
62990;SDS011;49084;48.204;16.202;2023-05-20T16:52:16;10.93;;;6.32;;
62990;SDS011;49084;48.204;16.202;2023-05-20T16:54:42;13.48;;;7.60;;
62990;SDS011;49084;48.204;16.202;2023-05-20T16:57:07;14.93;;;6.80;;
62990;SDS011;49084;48.204;16.202;2023-05-20T16:59:36;9.48;;;6.60;;
62990;SDS011;49084;48.204;16.202;2023-05-20T17:02:01;8.85;;;6.55;;
62990;SDS011;49084;48.204;16.202;2023-05-20T17:04:27;8.52;;;7.43;;
62990;SDS011;49084;48.204;16.202;2023-05-20T17:06:53;18.58;;;7.25;;
62990;SDS011;49084;48.204;16.202;2023-05-20T17:09:20;11.25;;;6.72;;
62990;SDS011;49084;48.204;16.202;2023-05-20T17:11:46;10.73;;;7.07;;
62990;SDS011;49084;48.204;16.202;2023-05-20T17:14:12;6.55;;;5.80;;
62990;SDS011;49084;48.204;16.202;2023-05-20T17:16:37;9.77;;;6.20;;
62990;SDS011;49084;48.204;16.202;2023-05-20T17:19:03;16.42;;;8.18;;
62990;SDS011;49084;48.204;16.202;2023-05-20T17:21:28;11.48;;;6.82;;
62990;SDS011;49084;48.204;16.202;2023-05-20T17:23:55;11.30;;;6.93;;
62990;SDS011;49084;48.204;16.202;2023-05-20T17:26:20;12.13;;;7.57;;
62990;SDS011;49084;48.204;16.202;2023-05-20T17:28:46;12.10;;;8.00;;
62990;SDS011;49084;48.204;16.202;2023-05-20T17:31:12;11.77;;;7.45;;
62990;SDS011;49084;48.204;16.202;2023-05-20T17:33:37;10.45;;;7.50;;
62990;SDS011;49084;48.204;16.202;2023-05-20T17:36:03;9.57;;;6.80;;
62990;SDS011;49084;48.204;16.202;2023-05-20T17:38:29;10.65;;;7.25;;
62990;SDS011;49084;48.204;16.202;2023-05-20T17:40:55;10.23;;;7.13;;
62990;SDS011;49084;48.204;16.202;2023-05-20T17:43:20;10.48;;;7.13;;
62990;SDS011;49084;48.204;16.202;2023-05-20T17:45:48;14.05;;;7.25;;
62990;SDS011;49084;48.204;16.202;2023-05-20T17:48:14;14.13;;;7.88;;
62990;SDS011;49084;48.204;16.202;2023-05-20T17:50:40;12.75;;;7.72;;
62990;SDS011;49084;48.204;16.202;2023-05-20T17:53:06;8.73;;;7.10;;
62990;SDS011;49084;48.204;16.202;2023-05-20T17:55:32;15.05;;;8.30;;
62990;SDS011;49084;48.204;16.202;2023-05-20T17:58:00;9.20;;;7.03;;
62990;SDS011;49084;48.204;16.202;2023-05-20T18:00:31;9.07;;;7.20;;
62990;SDS011;49084;48.204;16.202;2023-05-20T18:02:58;13.52;;;7.25;;
62990;SDS011;49084;48.204;16.202;2023-05-20T18:05:24;13.52;;;7.50;;
62990;SDS011;49084;48.204;16.202;2023-05-20T18:07:50;9.15;;;7.75;;
62990;SDS011;49084;48.204;16.202;2023-05-20T18:10:16;11.07;;;7.68;;
62990;SDS011;49084;48.204;16.202;2023-05-20T18:12:42;10.73;;;8.68;;
62990;SDS011;49084;48.204;16.202;2023-05-20T18:15:09;11.13;;;7.82;;
62990;SDS011;49084;48.204;16.202;2023-05-20T18:17:35;11.90;;;7.80;;
62990;SDS011;49084;48.204;16.202;2023-05-20T18:20:00;10.82;;;8.02;;
62990;SDS011;49084;48.204;16.202;2023-05-20T18:22:27;13.02;;;8.15;;
62990;SDS011;49084;48.204;16.202;2023-05-20T18:24:52;12.88;;;8.45;;
62990;SDS011;49084;48.204;16.202;2023-05-20T18:27:18;10.40;;;9.07;;
62990;SDS011;49084;48.204;16.202;2023-05-20T18:29:44;12.82;;;8.85;;
62990;SDS011;49084;48.204;16.202;2023-05-20T18:32:10;16.80;;;8.65;;
62990;SDS011;49084;48.204;16.202;2023-05-20T18:34:35;12.05;;;9.00;;
62990;SDS011;49084;48.204;16.202;2023-05-20T18:37:01;11.80;;;8.98;;
62990;SDS011;49084;48.204;16.202;2023-05-20T18:39:26;17.13;;;9.20;;
62990;SDS011;49084;48.204;16.202;2023-05-20T18:41:52;15.63;;;10.02;;
62990;SDS011;49084;48.204;16.202;2023-05-20T18:44:18;13.43;;;9.50;;
62990;SDS011;49084;48.204;16.202;2023-05-20T18:46:43;10.98;;;9.07;;
62990;SDS011;49084;48.204;16.202;2023-05-20T18:49:10;15.13;;;9.38;;
62990;SDS011;49084;48.204;16.202;2023-05-20T18:51:36;16.70;;;9.57;;
62990;SDS011;49084;48.204;16.202;2023-05-20T18:54:02;13.95;;;10.27;;
62990;SDS011;49084;48.204;16.202;2023-05-20T18:56:28;15.98;;;10.25;;
62990;SDS011;49084;48.204;16.202;2023-05-20T18:58:53;11.48;;;9.88;;
62990;SDS011;49084;48.204;16.202;2023-05-20T19:01:19;14.43;;;9.82;;
62990;SDS011;49084;48.204;16.202;2023-05-20T19:03:45;16.95;;;10.43;;
62990;SDS011;49084;48.204;16.202;2023-05-20T19:06:11;14.05;;;9.38;;
62990;SDS011;49084;48.204;16.202;2023-05-20T19:08:37;13.05;;;10.02;;
62990;SDS011;49084;48.204;16.202;2023-05-20T19:11:06;12.55;;;9.98;;
62990;SDS011;49084;48.204;16.202;2023-05-20T19:13:32;14.45;;;10.23;;
62990;SDS011;49084;48.204;16.202;2023-05-20T19:15:58;12.10;;;10.32;;
62990;SDS011;49084;48.204;16.202;2023-05-20T19:18:24;15.35;;;10.50;;
62990;SDS011;49084;48.204;16.202;2023-05-20T19:20:52;16.25;;;10.32;;
62990;SDS011;49084;48.204;16.202;2023-05-20T19:23:18;17.42;;;10.65;;
62990;SDS011;49084;48.204;16.202;2023-05-20T19:25:43;13.07;;;10.68;;
62990;SDS011;49084;48.204;16.202;2023-05-20T19:28:09;15.82;;;10.40;;
62990;SDS011;49084;48.204;16.202;2023-05-20T19:30:35;16.85;;;11.63;;
62990;SDS011;49084;48.204;16.202;2023-05-20T19:33:02;19.98;;;12.13;;
62990;SDS011;49084;48.204;16.202;2023-05-20T19:35:28;13.30;;;10.75;;
62990;SDS011;49084;48.204;16.202;2023-05-20T19:37:54;12.38;;;9.88;;
62990;SDS011;49084;48.204;16.202;2023-05-20T19:40:20;22.20;;;11.52;;
62990;SDS011;49084;48.204;16.202;2023-05-20T19:42:47;14.02;;;11.63;;
62990;SDS011;49084;48.204;16.202;2023-05-20T19:45:12;18.27;;;11.73;;
62990;SDS011;49084;48.204;16.202;2023-05-20T19:47:38;15.80;;;11.73;;
62990;SDS011;49084;48.204;16.202;2023-05-20T19:50:04;16.35;;;11.98;;
62990;SDS011;49084;48.204;16.202;2023-05-20T19:52:30;15.93;;;10.48;;
62990;SDS011;49084;48.204;16.202;2023-05-20T19:54:56;15.57;;;11.70;;
62990;SDS011;49084;48.204;16.202;2023-05-20T19:57:22;19.10;;;11.77;;
62990;SDS011;49084;48.204;16.202;2023-05-20T19:59:47;16.65;;;12.32;;
62990;SDS011;49084;48.204;16.202;2023-05-20T20:02:13;14.15;;;11.63;;
62990;SDS011;49084;48.204;16.202;2023-05-20T20:04:39;17.50;;;12.38;;
62990;SDS011;49084;48.204;16.202;2023-05-20T20:07:08;16.35;;;11.73;;
62990;SDS011;49084;48.204;16.202;2023-05-20T20:09:34;17.83;;;10.90;;
62990;SDS011;49084;48.204;16.202;2023-05-20T20:12:00;16.65;;;12.05;;
62990;SDS011;49084;48.204;16.202;2023-05-20T20:14:28;17.33;;;12.23;;
62990;SDS011;49084;48.204;16.202;2023-05-20T20:16:54;15.05;;;12.88;;
62990;SDS011;49084;48.204;16.202;2023-05-20T20:19:20;22.42;;;13.25;;
62990;SDS011;49084;48.204;16.202;2023-05-20T20:21:46;17.45;;;12.15;;
62990;SDS011;49084;48.204;16.202;2023-05-20T20:24:12;21.55;;;11.90;;
62990;SDS011;49084;48.204;16.202;2023-05-20T20:26:39;17.65;;;13.13;;
62990;SDS011;49084;48.204;16.202;2023-05-20T20:29:05;17.48;;;12.10;;
62990;SDS011;49084;48.204;16.202;2023-05-20T20:31:31;17.17;;;12.57;;
62990;SDS011;49084;48.204;16.202;2023-05-20T20:33:57;15.75;;;12.13;;
62990;SDS011;49084;48.204;16.202;2023-05-20T20:36:23;15.15;;;12.50;;
62990;SDS011;49084;48.204;16.202;2023-05-20T20:38:48;20.17;;;12.75;;
62990;SDS011;49084;48.204;16.202;2023-05-20T20:41:14;17.42;;;14.10;;
62990;SDS011;49084;48.204;16.202;2023-05-20T20:43:43;18.67;;;13.75;;
62990;SDS011;49084;48.204;16.202;2023-05-20T20:46:09;19.42;;;14.57;;
62990;SDS011;49084;48.204;16.202;2023-05-20T20:48:39;20.35;;;14.43;;
62990;SDS011;49084;48.204;16.202;2023-05-20T20:51:14;22.15;;;14.98;;
62990;SDS011;49084;48.204;16.202;2023-05-20T20:53:40;21.55;;;15.82;;
62990;SDS011;49084;48.204;16.202;2023-05-20T20:56:07;19.35;;;13.85;;
62990;SDS011;49084;48.204;16.202;2023-05-20T20:58:33;17.08;;;14.65;;
62990;SDS011;49084;48.204;16.202;2023-05-20T21:00:59;19.67;;;15.35;;
62990;SDS011;49084;48.204;16.202;2023-05-20T21:03:27;18.70;;;14.55;;
62990;SDS011;49084;48.204;16.202;2023-05-20T21:05:53;20.10;;;15.75;;
62990;SDS011;49084;48.204;16.202;2023-05-20T21:08:19;19.75;;;15.75;;
62990;SDS011;49084;48.204;16.202;2023-05-20T21:10:46;21.25;;;15.68;;
62990;SDS011;49084;48.204;16.202;2023-05-20T21:13:12;19.50;;;15.60;;
62990;SDS011;49084;48.204;16.202;2023-05-20T21:15:38;19.25;;;14.50;;
62990;SDS011;49084;48.204;16.202;2023-05-20T21:18:05;20.52;;;15.60;;
62990;SDS011;49084;48.204;16.202;2023-05-20T21:20:31;20.13;;;16.27;;
62990;SDS011;49084;48.204;16.202;2023-05-20T21:22:56;18.15;;;15.73;;
62990;SDS011;49084;48.204;16.202;2023-05-20T21:25:22;22.17;;;16.85;;
62990;SDS011;49084;48.204;16.202;2023-05-20T21:27:48;21.80;;;17.42;;
62990;SDS011;49084;48.204;16.202;2023-05-20T21:30:13;28.83;;;16.58;;
62990;SDS011;49084;48.204;16.202;2023-05-20T21:32:40;22.85;;;16.77;;
62990;SDS011;49084;48.204;16.202;2023-05-20T21:35:06;23.00;;;17.38;;
62990;SDS011;49084;48.204;16.202;2023-05-20T21:37:32;25.08;;;17.60;;
62990;SDS011;49084;48.204;16.202;2023-05-20T21:39:58;22.77;;;17.27;;
62990;SDS011;49084;48.204;16.202;2023-05-20T21:42:23;22.88;;;17.92;;
62990;SDS011;49084;48.204;16.202;2023-05-20T21:44:49;21.65;;;16.60;;
62990;SDS011;49084;48.204;16.202;2023-05-20T21:47:15;21.30;;;16.48;;
62990;SDS011;49084;48.204;16.202;2023-05-20T21:49:41;19.15;;;16.15;;
62990;SDS011;49084;48.204;16.202;2023-05-20T21:52:06;21.55;;;16.17;;
62990;SDS011;49084;48.204;16.202;2023-05-20T21:54:32;22.80;;;17.52;;
62990;SDS011;49084;48.204;16.202;2023-05-20T21:56:57;23.45;;;18.08;;
62990;SDS011;49084;48.204;16.202;2023-05-20T21:59:23;23.13;;;17.45;;
62990;SDS011;49084;48.204;16.202;2023-05-20T22:01:48;22.85;;;16.63;;
62990;SDS011;49084;48.204;16.202;2023-05-20T22:04:14;23.60;;;17.08;;
62990;SDS011;49084;48.204;16.202;2023-05-20T22:06:42;20.52;;;17.08;;
62990;SDS011;49084;48.204;16.202;2023-05-20T22:09:09;25.88;;;17.75;;
62990;SDS011;49084;48.204;16.202;2023-05-20T22:11:34;24.02;;;16.85;;
62990;SDS011;49084;48.204;16.202;2023-05-20T22:14:01;22.75;;;17.35;;
62990;SDS011;49084;48.204;16.202;2023-05-20T22:16:28;24.85;;;17.27;;
62990;SDS011;49084;48.204;16.202;2023-05-20T22:18:54;20.50;;;16.30;;
62990;SDS011;49084;48.204;16.202;2023-05-20T22:21:21;21.13;;;17.35;;
62990;SDS011;49084;48.204;16.202;2023-05-20T22:23:48;23.08;;;17.35;;
62990;SDS011;49084;48.204;16.202;2023-05-20T22:26:14;25.00;;;17.52;;
62990;SDS011;49084;48.204;16.202;2023-05-20T22:28:42;26.95;;;17.63;;
62990;SDS011;49084;48.204;16.202;2023-05-20T22:31:08;24.13;;;17.33;;
62990;SDS011;49084;48.204;16.202;2023-05-20T22:33:33;23.70;;;18.63;;
62990;SDS011;49084;48.204;16.202;2023-05-20T22:36:00;24.77;;;18.25;;
62990;SDS011;49084;48.204;16.202;2023-05-20T22:38:26;23.70;;;18.05;;
62990;SDS011;49084;48.204;16.202;2023-05-20T22:40:53;26.10;;;17.85;;
62990;SDS011;49084;48.204;16.202;2023-05-20T22:43:19;23.80;;;17.95;;
62990;SDS011;49084;48.204;16.202;2023-05-20T22:45:47;21.88;;;17.02;;
62990;SDS011;49084;48.204;16.202;2023-05-20T22:48:12;22.08;;;17.70;;
62990;SDS011;49084;48.204;16.202;2023-05-20T22:50:38;22.10;;;16.63;;
62990;SDS011;49084;48.204;16.202;2023-05-20T22:53:04;27.88;;;19.60;;
62990;SDS011;49084;48.204;16.202;2023-05-20T22:55:29;29.80;;;18.42;;
62990;SDS011;49084;48.204;16.202;2023-05-20T22:57:55;25.42;;;18.98;;
62990;SDS011;49084;48.204;16.202;2023-05-20T23:00:21;24.58;;;19.40;;
62990;SDS011;49084;48.204;16.202;2023-05-20T23:02:47;28.52;;;18.45;;
62990;SDS011;49084;48.204;16.202;2023-05-20T23:05:14;27.85;;;17.85;;
62990;SDS011;49084;48.204;16.202;2023-05-20T23:07:40;28.50;;;18.75;;
62990;SDS011;49084;48.204;16.202;2023-05-20T23:10:05;24.50;;;18.35;;
62990;SDS011;49084;48.204;16.202;2023-05-20T23:12:31;24.70;;;17.60;;
62990;SDS011;49084;48.204;16.202;2023-05-20T23:14:57;24.10;;;17.92;;
62990;SDS011;49084;48.204;16.202;2023-05-20T23:17:23;24.52;;;17.80;;
62990;SDS011;49084;48.204;16.202;2023-05-20T23:19:48;27.17;;;18.92;;
62990;SDS011;49084;48.204;16.202;2023-05-20T23:22:14;29.50;;;19.27;;
62990;SDS011;49084;48.204;16.202;2023-05-20T23:24:40;27.17;;;19.00;;
62990;SDS011;49084;48.204;16.202;2023-05-20T23:27:05;24.38;;;17.98;;
62990;SDS011;49084;48.204;16.202;2023-05-20T23:29:31;27.02;;;18.42;;
62990;SDS011;49084;48.204;16.202;2023-05-20T23:31:57;23.73;;;17.83;;
62990;SDS011;49084;48.204;16.202;2023-05-20T23:34:23;25.50;;;17.73;;
62990;SDS011;49084;48.204;16.202;2023-05-20T23:36:48;27.38;;;19.15;;
62990;SDS011;49084;48.204;16.202;2023-05-20T23:39:16;24.08;;;18.33;;
62990;SDS011;49084;48.204;16.202;2023-05-20T23:41:42;26.52;;;18.38;;
62990;SDS011;49084;48.204;16.202;2023-05-20T23:44:07;26.98;;;18.10;;
62990;SDS011;49084;48.204;16.202;2023-05-20T23:46:33;26.52;;;19.40;;
62990;SDS011;49084;48.204;16.202;2023-05-20T23:48:59;24.75;;;18.42;;
62990;SDS011;49084;48.204;16.202;2023-05-20T23:51:25;25.42;;;18.52;;
62990;SDS011;49084;48.204;16.202;2023-05-20T23:53:52;24.48;;;17.85;;
62990;SDS011;49084;48.204;16.202;2023-05-20T23:56:18;25.83;;;18.50;;
62990;SDS011;49084;48.204;16.202;2023-05-20T23:58:44;25.40;;;18.83;;
